Danville, Alabama
Current Conditions -  °F | °C
As of 9:15 AM on Tuesday 21 Oct 2014 (Local Time) from KCMD Reporting Station
Clear Clear  
Wind Chill: 59°   Ceiling: Unl
Heat Index: 59°   Visibility: 10mi
Dew Point: 53°   Wind: 3mph
Humidity: 80%   Direction: 310°NW
Pressure: 30.09"   Gusts: NA
Location:  34.41°N, 87.08°W
Report Text: KCMD 211415Z AUTO 31003KT 10SM CLR 15/12 A3009 RMK AO2 T01510116
Loading
Personal Weather Stations






























Interactive Weather Map
Tropical Storm Tracking
New forecast layout! Learn more

10-Day Weather Forecast

Advertisements
Track Severe Weather on mobile